createdAt,value
2023-03-14T00:01:47.341Z,71.45
2023-03-14T00:04:49.991Z,71.39
2023-03-14T00:07:52.594Z,71.28
2023-03-14T00:10:55.226Z,71.68
2023-03-14T00:13:57.956Z,71.84
2023-03-14T00:17:00.493Z,71.83
2023-03-14T00:20:12.779Z,71.64
2023-03-14T00:23:15.273Z,71.42
2023-03-14T00:26:19.809Z,71.27
2023-03-14T00:29:22.517Z,71.40
2023-03-14T00:32:25.390Z,71.40
2023-03-14T00:35:28.019Z,71.50
2023-03-14T00:38:32.220Z,71.64
2023-03-14T00:41:34.747Z,71.67
2023-03-14T00:44:37.366Z,71.32
2023-03-14T00:47:47.250Z,71.68
2023-03-14T00:50:49.786Z,71.82
2023-03-14T00:53:52.357Z,71.79
2023-03-14T00:56:55.050Z,71.44
2023-03-14T00:59:58.640Z,72.02
2023-03-14T01:03:01.972Z,72.10
2023-03-14T01:06:16.088Z,71.56
2023-03-14T01:09:19.034Z,71.75
2023-03-14T01:12:24.745Z,71.66
2023-03-14T01:15:27.406Z,71.63
2023-03-14T01:18:30.006Z,71.46
2023-03-14T01:21:34.240Z,71.29
2023-03-14T01:24:38.435Z,71.66
2023-03-14T01:27:41.643Z,71.54
2023-03-14T01:30:44.618Z,71.53
2023-03-14T01:33:49.027Z,71.28
2023-03-14T01:36:51.933Z,71.14
2023-03-14T01:39:55.456Z,70.86
2023-03-14T01:43:06.803Z,70.84
2023-03-14T01:46:10.093Z,70.80
2023-03-14T01:49:24.023Z,71.13
2023-03-14T01:52:36.962Z,71.13
2023-03-14T01:55:40.011Z,71.47
2023-03-14T01:58:43.214Z,71.20
2023-03-14T02:01:48.394Z,70.57
2023-03-14T02:04:52.536Z,70.73
2023-03-14T02:08:00.187Z,70.56
2023-03-14T02:11:08.571Z,70.51
2023-03-14T02:14:35.113Z,70.19
2023-03-14T02:18:07.196Z,70.44
2023-03-14T02:21:57.182Z,70.29
2023-03-14T02:25:16.804Z,70.26
2023-03-14T02:28:20.521Z,70.61
2023-03-14T02:31:26.112Z,70.41
2023-03-14T02:34:29.047Z,70.72
2023-03-14T02:37:40.226Z,70.68
2023-03-14T02:40:43.816Z,70.57
2023-03-14T02:43:47.185Z,70.75
2023-03-14T02:46:51.231Z,70.56
2023-03-14T02:49:57.158Z,70.54
2023-03-14T02:52:59.705Z,70.29
2023-03-14T02:56:03.339Z,69.99
2023-03-14T02:59:08.272Z,69.96
2023-03-14T03:02:18.356Z,70.24
2023-03-14T03:05:20.900Z,70.34
2023-03-14T03:08:25.572Z,69.99
2023-03-14T03:11:28.290Z,69.47
2023-03-14T03:14:31.240Z,69.45
2023-03-14T03:17:40.039Z,68.68
2023-03-14T03:20:42.663Z,68.61
2023-03-14T03:23:45.714Z,68.76
2023-03-14T03:26:48.339Z,68.35
2023-03-14T03:29:53.564Z,68.75
2023-03-14T03:33:26.639Z,69.33
2023-03-14T03:36:36.198Z,69.42
2023-03-14T03:39:46.505Z,69.28
2023-03-14T03:43:01.241Z,69.42
2023-03-14T03:46:09.371Z,68.64
2023-03-14T03:49:20.729Z,68.75
2023-03-14T03:52:23.783Z,68.78
2023-03-14T03:55:44.364Z,68.98
2023-03-14T03:58:49.918Z,69.11
2023-03-14T04:01:53.238Z,69.39
2023-03-14T04:04:56.010Z,68.99
2023-03-14T04:07:58.692Z,68.96
2023-03-14T04:11:04.437Z,69.77
2023-03-14T04:14:22.270Z,70.33
2023-03-14T04:17:32.345Z,70.62
2023-03-14T04:20:36.363Z,70.93
2023-03-14T04:23:40.150Z,71.36
2023-03-14T04:26:43.614Z,71.87
2023-03-14T04:29:47.748Z,71.86
2023-03-14T04:32:53.444Z,72.04
2023-03-14T04:35:59.315Z,73.22
2023-03-14T04:39:01.896Z,72.08
2023-03-14T04:42:04.634Z,72.13
2023-03-14T04:45:08.193Z,72.01
2023-03-14T04:48:11.609Z,71.51
2023-03-14T04:51:14.572Z,71.81
2023-03-14T04:54:17.532Z,72.13
2023-03-14T04:57:21.332Z,72.02
2023-03-14T05:00:24.844Z,71.67
2023-03-14T05:03:53.665Z,72.00
2023-03-14T05:07:09.119Z,71.93
2023-03-14T05:10:44.170Z,73.25
2023-03-14T05:13:53.092Z,73.33
2023-03-14T05:17:19.793Z,73.69
2023-03-14T05:20:41.532Z,73.72
2023-03-14T05:24:07.074Z,72.64
2023-03-14T05:27:36.247Z,72.23
2023-03-14T05:31:09.593Z,72.60
2023-03-14T05:34:27.346Z,73.15
2023-03-14T05:37:53.010Z,72.60
2023-03-14T05:41:17.620Z,72.00
2023-03-14T05:44:41.050Z,72.48
2023-03-14T05:48:01.279Z,72.75
2023-03-14T05:51:27.218Z,72.21
2023-03-14T05:54:46.699Z,71.30
2023-03-14T05:58:02.184Z,71.41
2023-03-14T06:01:23.281Z,71.34
2023-03-14T06:04:40.036Z,71.48
2023-03-14T06:07:42.796Z,72.17
2023-03-14T06:10:46.705Z,72.62
2023-03-14T06:13:49.792Z,72.63
2023-03-14T06:16:52.379Z,72.89
2023-03-14T06:19:56.720Z,72.81
2023-03-14T06:23:00.032Z,72.41
2023-03-14T06:26:02.839Z,72.73
2023-03-14T06:29:06.245Z,71.68
2023-03-14T06:32:11.299Z,71.83
2023-03-14T06:35:16.914Z,71.43
2023-03-14T06:38:20.728Z,70.93
2023-03-14T06:41:27.153Z,71.03
2023-03-14T06:44:29.825Z,70.97
2023-03-14T06:47:32.752Z,71.07
2023-03-14T06:50:35.853Z,70.77
2023-03-14T06:53:39.780Z,70.06
2023-03-14T06:56:43.302Z,69.19
2023-03-14T06:59:46.159Z,69.14
2023-03-14T07:02:48.860Z,69.22
2023-03-14T07:06:02.968Z,68.20
2023-03-14T07:09:05.782Z,68.92
2023-03-14T07:12:11.132Z,68.11
2023-03-14T07:15:18.985Z,68.48
2023-03-14T07:18:25.935Z,67.72
2023-03-14T07:21:28.880Z,67.53
2023-03-14T07:24:31.653Z,67.22
2023-03-14T07:27:34.385Z,67.09
2023-03-14T07:30:37.201Z,66.32
2023-03-14T07:33:46.639Z,68.16
2023-03-14T07:36:49.317Z,67.11
2023-03-14T07:39:52.118Z,66.84
2023-03-14T07:42:58.704Z,67.13
2023-03-14T07:46:14.094Z,66.90
2023-03-14T07:49:16.656Z,67.29
2023-03-14T07:52:19.324Z,66.67
2023-03-14T07:55:22.169Z,67.00
2023-03-14T07:58:24.668Z,67.12
2023-03-14T08:01:27.312Z,67.05
2023-03-14T08:04:30.050Z,66.91
2023-03-14T08:07:32.732Z,66.13
2023-03-14T08:10:35.470Z,66.73
2023-03-14T08:13:38.632Z,65.66
2023-03-14T08:16:41.142Z,66.19
2023-03-14T08:19:43.864Z,65.71
2023-03-14T08:22:46.440Z,65.92
2023-03-14T08:25:52.572Z,65.52
2023-03-14T08:28:55.246Z,65.54
2023-03-14T08:32:01.096Z,65.36
2023-03-14T08:35:04.063Z,65.27
2023-03-14T08:38:06.740Z,65.58
2023-03-14T08:41:09.905Z,66.42
2023-03-14T08:44:12.844Z,66.43
2023-03-14T08:47:15.843Z,66.68
2023-03-14T08:50:20.761Z,65.99
2023-03-14T08:53:23.841Z,65.80
2023-03-14T08:56:26.449Z,65.63
2023-03-14T08:59:29.219Z,65.77
2023-03-14T09:02:31.763Z,65.50
2023-03-14T09:05:35.586Z,67.43
2023-03-14T09:08:39.690Z,66.91
2023-03-14T09:11:42.515Z,67.08
2023-03-14T09:14:45.197Z,66.68
2023-03-14T09:17:48.271Z,65.66
2023-03-14T09:20:51.180Z,66.54
2023-03-14T09:23:53.966Z,65.06
2023-03-14T09:26:58.100Z,66.38
2023-03-14T09:30:00.767Z,66.53
2023-03-14T09:33:03.564Z,66.18
2023-03-14T09:36:07.181Z,66.03
2023-03-14T09:39:09.874Z,66.48
2023-03-14T09:42:16.582Z,66.93
2023-03-14T09:45:28.884Z,66.60
2023-03-14T09:48:34.336Z,66.99
2023-03-14T09:51:37.686Z,67.65
2023-03-14T09:55:02.698Z,67.25
2023-03-14T09:58:11.896Z,66.94
2023-03-14T10:01:17.563Z,68.16
2023-03-14T10:04:24.377Z,67.06
2023-03-14T10:07:30.845Z,65.58
2023-03-14T10:10:33.973Z,64.97
2023-03-14T10:13:36.638Z,65.12
2023-03-14T10:16:44.110Z,64.93
2023-03-14T10:19:56.025Z,64.08
2023-03-14T10:22:58.725Z,64.39
2023-03-14T10:26:01.734Z,65.90
2023-03-14T10:29:14.351Z,64.81
2023-03-14T10:32:21.139Z,64.47
2023-03-14T10:35:24.393Z,64.73
2023-03-14T10:38:30.004Z,64.96
2023-03-14T10:41:33.111Z,65.51
2023-03-14T10:44:35.991Z,64.15
2023-03-14T10:47:50.056Z,64.71
2023-03-14T10:51:08.128Z,65.42
2023-03-14T10:54:20.900Z,65.79
2023-03-14T10:57:23.784Z,65.79
2023-03-14T11:00:26.399Z,66.37
2023-03-14T11:03:32.544Z,65.24
2023-03-14T11:06:46.280Z,65.10
2023-03-14T11:10:10.656Z,64.89
2023-03-14T11:13:35.066Z,64.35
2023-03-14T11:16:59.244Z,64.30
2023-03-14T11:20:17.183Z,65.23
2023-03-14T11:23:58.477Z,64.79
2023-03-14T11:27:18.958Z,65.71
2023-03-14T11:30:43.033Z,65.83
2023-03-14T11:34:13.157Z,66.42
2023-03-14T11:37:26.024Z,67.29
2023-03-14T11:40:29.587Z,67.14
2023-03-14T11:43:44.165Z,67.36
2023-03-14T11:46:55.242Z,68.24
2023-03-14T11:50:23.395Z,69.26
2023-03-14T11:53:49.702Z,70.52
2023-03-14T11:56:59.097Z,70.18
2023-03-14T12:00:14.352Z,70.32
2023-03-14T12:03:25.901Z,69.98
2023-03-14T12:06:37.820Z,70.90
2023-03-14T12:09:40.497Z,70.89
2023-03-14T12:12:43.485Z,71.52
2023-03-14T12:16:21.600Z,73.47
2023-03-14T12:19:25.604Z,72.38
2023-03-14T12:22:29.816Z,72.37
2023-03-14T12:25:34.330Z,71.63
2023-03-14T12:28:37.299Z,72.87
2023-03-14T12:31:44.759Z,74.16
2023-03-14T12:34:47.461Z,74.34
2023-03-14T12:37:53.039Z,75.14
2023-03-14T12:41:23.825Z,74.94
2023-03-14T12:44:32.845Z,77.57
2023-03-14T12:47:38.478Z,79.24
2023-03-14T12:50:46.565Z,83.06
2023-03-14T12:54:23.029Z,80.78
2023-03-14T12:57:32.457Z,81.20
2023-03-14T13:00:37.130Z,87.61
2023-03-14T13:03:56.330Z,89.37
2023-03-14T13:07:01.271Z,88.11
2023-03-14T13:13:36.300Z,85.43
2023-03-14T13:16:39.174Z,87.41
2023-03-14T13:19:44.251Z,87.44
2023-03-14T13:22:49.294Z,84.07
2023-03-14T13:25:52.729Z,84.64
2023-03-14T13:28:55.373Z,84.04
2023-03-14T13:32:17.413Z,86.91
2023-03-14T13:35:31.090Z,88.16
2023-03-14T13:38:37.073Z,89.71
2023-03-14T13:41:41.245Z,89.26
2023-03-14T13:44:43.900Z,86.64
2023-03-14T13:47:49.253Z,85.57
2023-03-14T13:51:13.417Z,88.16
2023-03-14T13:54:27.381Z,85.84
2023-03-14T13:57:44.817Z,86.16
2023-03-14T14:01:05.301Z,85.86
2023-03-14T14:04:10.765Z,86.54
2023-03-14T14:07:19.936Z,86.13
2023-03-14T14:10:23.166Z,85.91
2023-03-14T14:13:26.509Z,85.19
2023-03-14T14:16:30.309Z,84.10
2023-03-14T14:19:35.019Z,85.71
2023-03-14T14:22:38.151Z,86.66
2023-03-14T14:25:41.090Z,86.53
2023-03-14T14:28:43.758Z,85.45
2023-03-14T14:31:46.701Z,86.89
2023-03-14T14:34:59.562Z,87.62
2023-03-14T14:38:03.159Z,88.10
2023-03-14T14:41:05.969Z,88.33
2023-03-14T14:44:09.214Z,88.92
2023-03-14T14:47:17.064Z,88.62
2023-03-14T14:50:39.526Z,90.82
2023-03-14T14:53:44.409Z,90.24
2023-03-14T14:56:50.106Z,88.55
2023-03-14T14:59:56.578Z,88.96
2023-03-14T15:03:02.207Z,91.29
2023-03-14T15:06:05.502Z,93.87
2023-03-14T15:09:11.481Z,96.48
2023-03-14T15:12:14.231Z,99.97
2023-03-14T15:15:18.671Z,100.00
2023-03-14T15:18:21.360Z,100.00
2023-03-14T15:21:25.292Z,100.00
2023-03-14T15:24:28.287Z,100.00
2023-03-14T15:27:33.338Z,100.00
2023-03-14T15:30:36.442Z,100.00
2023-03-14T15:33:39.277Z,100.00
2023-03-14T15:36:41.979Z,100.00
2023-03-14T15:39:44.845Z,100.00
2023-03-14T15:42:47.636Z,100.00
2023-03-14T15:45:51.875Z,100.00
2023-03-14T15:48:54.701Z,100.00
2023-03-14T15:51:58.208Z,100.00
2023-03-14T15:55:01.585Z,100.00
2023-03-14T15:58:04.497Z,100.00
2023-03-14T16:01:10.572Z,100.00
2023-03-14T16:04:13.743Z,100.00
2023-03-14T16:07:16.581Z,98.96
2023-03-14T16:10:19.823Z,100.00
2023-03-14T16:13:23.201Z,97.56
2023-03-14T16:16:26.032Z,96.75
2023-03-14T16:19:29.496Z,97.53
2023-03-14T16:22:35.987Z,97.75
2023-03-14T16:25:39.048Z,97.34
2023-03-14T16:28:42.651Z,95.05
2023-03-14T16:31:45.469Z,95.36
2023-03-14T16:34:48.361Z,95.67
2023-03-14T16:37:51.118Z,94.27
2023-03-14T16:41:05.036Z,94.44
2023-03-14T16:44:07.780Z,96.08
2023-03-14T16:47:11.101Z,95.26
2023-03-14T16:50:13.961Z,96.74
2023-03-14T16:53:16.720Z,97.94
2023-03-14T16:56:19.685Z,98.29
2023-03-14T16:59:22.324Z,100.00
2023-03-14T17:02:25.393Z,99.73
2023-03-14T17:05:28.264Z,98.68
2023-03-14T17:08:31.255Z,97.90
2023-03-14T17:11:34.793Z,96.23
2023-03-14T17:14:38.042Z,95.01
2023-03-14T17:17:41.172Z,98.18
2023-03-14T17:20:43.993Z,95.65
2023-03-14T17:23:46.916Z,95.93
2023-03-14T17:26:49.996Z,95.45
2023-03-14T17:29:52.866Z,97.26
2023-03-14T17:32:57.599Z,96.51
2023-03-14T17:36:01.709Z,95.70
2023-03-14T17:39:04.485Z,97.02
2023-03-14T17:42:08.253Z,94.45
2023-03-14T17:45:11.559Z,94.63
2023-03-14T17:48:14.353Z,95.05
2023-03-14T17:51:17.467Z,95.18
2023-03-14T17:54:20.757Z,95.51
2023-03-14T17:57:23.740Z,98.12
2023-03-14T18:00:26.574Z,97.80
2023-03-14T18:03:29.595Z,96.80
2023-03-14T18:06:33.095Z,98.28
2023-03-14T18:09:35.938Z,98.53
2023-03-14T18:12:39.721Z,97.80
2023-03-14T18:15:43.026Z,98.92
2023-03-14T18:18:48.868Z,100.00
2023-03-14T18:21:54.822Z,98.47
2023-03-14T18:24:57.814Z,98.82
2023-03-14T18:28:01.366Z,100.00
2023-03-14T18:31:08.726Z,99.57
2023-03-14T18:34:12.537Z,97.38
2023-03-14T18:37:15.492Z,96.86
2023-03-14T18:40:20.003Z,96.67
2023-03-14T18:43:23.185Z,96.64
2023-03-14T18:46:26.244Z,95.97
2023-03-14T18:49:29.164Z,95.37
2023-03-14T18:52:32.478Z,97.24
2023-03-14T18:55:35.734Z,96.11
2023-03-14T18:58:39.010Z,96.54
2023-03-14T19:01:43.577Z,97.75
2023-03-14T19:04:46.675Z,96.90
2023-03-14T19:07:49.967Z,96.87
2023-03-14T19:10:55.189Z,96.66
2023-03-14T19:14:00.213Z,96.34
2023-03-14T19:17:03.262Z,95.65
2023-03-14T19:20:06.643Z,96.22
2023-03-14T19:23:10.036Z,92.65
2023-03-14T19:26:16.445Z,91.65
2023-03-14T19:29:19.666Z,95.22
2023-03-14T19:32:23.031Z,95.49
2023-03-14T19:35:27.676Z,95.93
2023-03-14T19:38:30.624Z,100.00
2023-03-14T19:41:34.850Z,100.00
2023-03-14T19:44:38.127Z,100.00
2023-03-14T19:47:41.525Z,100.00
2023-03-14T19:50:45.279Z,100.00
2023-03-14T19:53:49.859Z,100.00
2023-03-14T19:56:52.988Z,100.00
2023-03-14T19:59:55.839Z,100.00
2023-03-14T20:02:59.552Z,100.00
2023-03-14T20:06:12.035Z,100.00
2023-03-14T20:09:15.231Z,100.00
2023-03-14T20:12:18.712Z,100.00
2023-03-14T20:15:22.238Z,100.00
2023-03-14T20:18:25.424Z,100.00
2023-03-14T20:21:29.136Z,100.00
2023-03-14T20:24:32.884Z,100.00
2023-03-14T20:27:37.102Z,100.00
2023-03-14T20:30:40.421Z,100.00
2023-03-14T20:33:43.335Z,100.00
2023-03-14T20:36:48.372Z,100.00
2023-03-14T20:39:51.642Z,100.00
2023-03-14T20:42:54.837Z,100.00
2023-03-14T20:45:59.491Z,100.00
2023-03-14T20:49:03.254Z,100.00
2023-03-14T20:52:06.355Z,100.00
2023-03-14T20:55:09.645Z,100.00
2023-03-14T20:58:15.351Z,100.00
2023-03-14T21:07:53.429Z,100.00
2023-03-14T21:10:56.379Z,100.00
2023-03-14T21:13:59.466Z,100.00
2023-03-14T21:17:02.721Z,97.12
2023-03-14T21:20:07.089Z,91.31
2023-03-14T21:23:11.926Z,89.60
2023-03-14T21:26:15.402Z,89.67
2023-03-14T21:32:21.647Z,87.67
2023-03-14T21:35:24.481Z,87.48
2023-03-14T21:38:27.300Z,87.53
2023-03-14T21:41:30.192Z,87.14
2023-03-14T21:44:37.358Z,87.73
2023-03-14T21:47:40.450Z,87.59
2023-03-14T21:50:44.749Z,86.77
2023-03-14T21:53:47.288Z,86.19
2023-03-14T21:56:49.889Z,86.69
2023-03-14T21:59:52.613Z,87.28
2023-03-14T22:03:12.437Z,87.34
2023-03-14T22:06:15.661Z,86.37
2023-03-14T22:09:19.015Z,87.03
2023-03-14T22:12:21.794Z,87.58
2023-03-14T22:15:24.307Z,87.41
2023-03-14T22:18:26.857Z,88.34
2023-03-14T22:21:30.304Z,88.23
2023-03-14T22:24:32.979Z,88.50
2023-03-14T22:27:35.628Z,88.36
2023-03-14T22:30:41.909Z,88.32
2023-03-14T22:33:44.576Z,87.45
2023-03-14T22:36:47.226Z,86.07
2023-03-14T22:39:49.751Z,85.39
2023-03-14T22:42:54.028Z,85.79
2023-03-14T22:46:03.837Z,84.52
2023-03-14T22:49:06.485Z,83.47
2023-03-14T22:52:09.111Z,83.56
2023-03-14T22:55:11.655Z,83.45
2023-03-14T22:58:14.519Z,82.72
2023-03-14T23:01:17.319Z,82.92
2023-03-14T23:04:20.325Z,82.45
2023-03-14T23:07:22.792Z,82.38
2023-03-14T23:10:25.381Z,81.67
2023-03-14T23:13:28.465Z,82.04
2023-03-14T23:16:39.975Z,81.99
2023-03-14T23:19:45.701Z,81.37
2023-03-14T23:22:48.358Z,82.59
2023-03-14T23:25:53.766Z,81.50
2023-03-14T23:28:56.642Z,81.53
2023-03-14T23:31:59.283Z,81.37
2023-03-14T23:35:01.919Z,81.08
2023-03-14T23:38:04.478Z,80.34
2023-03-14T23:41:07.126Z,82.16
2023-03-14T23:44:14.629Z,82.81
2023-03-14T23:47:17.260Z,80.92
2023-03-14T23:50:19.835Z,82.17
2023-03-14T23:53:23.954Z,80.61
2023-03-14T23:56:26.627Z,81.34
2023-03-14T23:59:29.771Z,80.23
